Time;durP1;ratioP1;P1;durP2;ratioP2;P2;SDS_P1;SDS_P2;PMS_P1;PMS_P2;Temp;Humidity;BMP_temperature;BMP_pressure;BME280_temperature;BME280_humidity;BME280_pressure;Samples;Min_cycle;Max_cycle;Signal;HPM_P1;HPM_P2
2022/12/17 13:07:27;;;;;;;54.00;29.95;;;2.00;79.20;;;;;;5051364;28;20052;-87
2022/12/17 13:09:57;;;;;;;62.08;33.22;;;2.00;79.10;;;;;;5059514;28;20032;-86
2022/12/17 13:12:38;;;;;;;55.53;29.33;;;2.10;79.20;;;;;;5034117;28;20558;-86
2022/12/17 13:15:04;;;;;;;54.03;28.75;;;2.00;79.10;;;;;;5038213;28;20044;-86
2022/12/17 13:17:45;;;;;;;58.13;30.80;;;2.00;79.10;;;;;;5052096;28;20025;-86
2022/12/17 13:20:25;;;;;;;57.60;31.42;;;2.00;78.90;;;;;;5058166;28;20029;-86
2022/12/17 13:23:03;;;;;;;58.88;31.55;;;2.00;78.90;;;;;;5032985;28;21431;-85
2022/12/17 13:25:28;;;;;;;88.47;47.50;;;1.90;78.90;;;;;;5036119;28;20032;-86
2022/12/17 13:27:54;;;;;;;89.47;50.80;;;2.00;79.00;;;;;;5056380;28;20028;-86
2022/12/17 13:30:30;;;;;;;88.00;49.92;;;2.10;79.10;;;;;;5045398;28;20031;-85
2022/12/17 13:33:14;;;;;;;73.22;39.42;;;2.00;78.90;;;;;;5034016;28;20136;-86
2022/12/17 13:35:54;;;;;;;62.58;34.70;;;2.00;78.90;;;;;;5046449;28;20112;-86
2022/12/17 13:38:50;;;;;;;62.38;38.33;;;2.00;78.90;;;;;;5035831;28;20033;-85
2022/12/17 13:41:30;;;;;;;68.85;37.97;;;1.90;78.90;;;;;;5037735;28;20033;-85
2022/12/17 13:44:03;;;;;;;62.40;34.83;;;1.90;78.80;;;;;;5038295;28;20029;-86
2022/12/17 13:46:41;;;;;;;56.92;31.95;;;1.90;78.90;;;;;;5030297;28;20020;-85
2022/12/17 13:53:28;;;;;;;63.53;34.35;;;1.90;78.90;;;;;;5052060;28;20056;-86
2022/12/17 14:03:39;;;;;;;65.40;34.53;;;1.70;79.30;;;;;;5052592;28;20446;-86
2022/12/17 14:06:10;;;;;;;56.92;30.65;;;1.70;79.20;;;;;;5039326;28;20040;-85
2022/12/17 14:08:36;;;;;;;68.70;35.88;;;1.70;79.30;;;;;;5058268;28;20013;-85
2022/12/17 14:13:49;;;;;;;65.65;34.85;;;1.60;79.30;;;;;;5070297;28;20032;-87
2022/12/17 14:16:19;;;;;;;61.60;34.58;;;1.60;79.10;;;;;;5055475;28;20032;-87
2022/12/17 14:18:50;;;;;;;67.38;36.00;;;1.60;79.20;;;;;;5062752;28;20017;-85
2022/12/17 14:21:16;;;;;;;57.22;30.98;;;1.50;79.20;;;;;;5044184;28;20028;-86
2022/12/17 14:23:44;;;;;;;58.58;30.70;;;1.60;79.20;;;;;;5038258;28;20036;-85
2022/12/17 14:26:11;;;;;;;51.35;26.23;;;1.60;79.20;;;;;;5055280;28;20036;-86
2022/12/17 14:28:48;;;;;;;50.70;27.42;;;1.60;79.30;;;;;;5037283;28;20085;-86
2022/12/17 14:31:13;;;;;;;56.13;30.42;;;1.70;79.30;;;;;;5034455;28;20026;-86
2022/12/17 14:33:43;;;;;;;57.63;31.08;;;1.60;79.00;;;;;;5041887;28;20101;-86
2022/12/17 14:36:19;;;;;;;52.55;28.38;;;1.60;79.00;;;;;;5040114;28;20039;-86
2022/12/17 14:39:13;;;;;;;53.65;29.75;;;1.60;79.10;;;;;;5040800;28;20021;-86
2022/12/17 14:44:26;;;;;;;48.35;26.23;;;1.40;79.00;;;;;;5058812;28;20615;-86
2022/12/17 14:47:07;;;;;;;59.85;32.90;;;1.40;79.10;;;;;;5029494;28;20048;-86
2022/12/17 14:49:33;;;;;;;67.82;35.38;;;1.40;79.00;;;;;;5059584;28;20025;-86
2022/12/17 14:52:00;;;;;;;68.10;35.45;;;1.40;79.10;;;;;;5044284;28;20168;-85
2022/12/17 14:54:29;;;;;;;68.03;35.85;;;1.30;79.20;;;;;;5042019;28;20223;-86
2022/12/17 14:56:56;;;;;;;65.65;33.60;;;1.30;79.30;;;;;;5032067;28;20021;-86
2022/12/17 14:59:34;;;;;;;55.70;29.17;;;1.20;79.40;;;;;;5025777;28;20075;-86
2022/12/17 15:02:22;;;;;;;60.08;31.30;;;1.30;79.60;;;;;;5040517;28;20017;-85
2022/12/17 15:04:49;;;;;;;54.50;28.40;;;1.30;79.60;;;;;;5035491;28;20082;-87
2022/12/17 15:07:22;;;;;;;62.55;32.97;;;1.20;79.60;;;;;;5031525;28;20125;-86
2022/12/17 15:09:48;;;;;;;51.30;26.63;;;1.30;79.70;;;;;;5032112;28;20021;-87
2022/12/17 15:12:13;;;;;;;56.75;30.10;;;1.20;79.60;;;;;;5023913;28;20091;-88
2022/12/17 15:14:39;;;;;;;52.63;26.42;;;1.20;79.60;;;;;;5033041;28;20025;-88
2022/12/17 15:17:04;;;;;;;48.42;26.00;;;1.20;79.90;;;;;;5028953;28;20029;-88
2022/12/17 15:19:30;;;;;;;51.05;27.25;;;1.20;79.80;;;;;;5046704;28;20017;-89
2022/12/17 15:21:56;;;;;;;52.92;28.15;;;1.20;79.80;;;;;;5028002;28;20025;-89
2022/12/17 15:24:21;;;;;;;47.97;26.40;;;1.20;79.70;;;;;;5032029;28;20029;-87
2022/12/17 15:26:47;;;;;;;55.42;29.30;;;1.30;79.80;;;;;;5028455;28;20068;-85
2022/12/17 15:29:13;;;;;;;49.40;25.90;;;1.20;79.70;;;;;;5032450;28;20017;-86
2022/12/17 15:31:39;;;;;;;66.57;32.85;;;1.20;79.80;;;;;;5031167;28;20025;-86
2022/12/17 15:34:04;;;;;;;60.28;32.67;;;1.00;79.70;;;;;;5036202;28;20480;-84
2022/12/17 15:36:30;;;;;;;60.55;31.52;;;0.90;80.30;;;;;;5038624;28;20021;-84
2022/12/17 15:38:56;;;;;;;58.72;30.55;;;0.80;80.70;;;;;;5037981;28;20021;-85
2022/12/17 15:44:06;;;;;;;49.53;26.73;;;0.80;81.30;;;;;;5053329;28;20055;-85
2022/12/17 15:46:31;;;;;;;68.72;35.40;;;0.80;81.10;;;;;;5037822;28;20542;-86
2022/12/17 15:48:57;;;;;;;63.65;35.70;;;0.80;81.00;;;;;;5037427;28;20078;-86
2022/12/17 15:51:23;;;;;;;64.80;35.00;;;0.60;81.30;;;;;;5054403;28;20081;-85
2022/12/17 15:53:49;;;;;;;62.50;35.60;;;0.50;81.70;;;;;;5044623;28;20176;-86
2022/12/17 15:56:38;;;;;;;72.40;39.25;;;0.60;82.00;;;;;;5051233;28;20025;-85
2022/12/17 15:59:06;;;;;;;55.70;30.20;;;0.60;81.90;;;;;;5047939;28;20033;-85
2022/12/17 16:01:31;;;;;;;62.38;34.10;;;0.60;81.80;;;;;;5022039;28;20027;-85
2022/12/17 16:03:57;;;;;;;57.53;32.25;;;0.70;81.60;;;;;;5043746;28;20028;-84
2022/12/17 16:06:22;;;;;;;65.25;35.03;;;0.60;81.40;;;;;;5036744;28;20025;-84
2022/12/17 16:08:48;;;;;;;61.83;36.08;;;0.60;81.20;;;;;;5038387;28;20013;-84
2022/12/17 16:11:14;;;;;;;64.03;35.15;;;0.70;81.30;;;;;;5032329;28;20021;-84
2022/12/17 16:13:40;;;;;;;60.25;35.67;;;0.70;81.20;;;;;;5032218;28;20029;-85
2022/12/17 16:16:07;;;;;;;50.97;29.73;;;0.70;81.10;;;;;;5026528;28;20025;-85
2022/12/17 16:18:33;;;;;;;58.75;32.42;;;0.70;81.20;;;;;;5024135;28;20375;-87
2022/12/17 16:21:07;;;;;;;53.15;29.45;;;0.80;81.00;;;;;;5036736;28;20033;-86
2022/12/17 16:23:33;;;;;;;53.95;31.08;;;0.80;81.00;;;;;;5026133;28;20032;-85
2022/12/17 16:26:00;;;;;;;52.50;28.27;;;0.80;80.80;;;;;;5030438;28;20353;-85
2022/12/17 16:28:27;;;;;;;51.78;28.45;;;0.70;80.70;;;;;;5025597;28;20498;-85
2022/12/17 16:31:06;;;;;;;51.40;28.92;;;0.70;80.60;;;;;;5042796;28;20116;-85
2022/12/17 16:33:33;;;;;;;59.75;32.13;;;0.70;80.60;;;;;;5052830;28;20566;-85
2022/12/17 16:35:59;;;;;;;54.17;29.83;;;0.60;80.60;;;;;;5051440;28;20135;-85
2022/12/17 16:38:25;;;;;;;61.35;33.75;;;0.70;80.80;;;;;;5043777;28;20035;-85
2022/12/17 16:40:55;;;;;;;49.78;28.00;;;0.70;80.80;;;;;;5036945;28;20038;-85
2022/12/17 16:43:20;;;;;;;57.83;31.45;;;0.70;80.80;;;;;;5033566;28;20021;-84
2022/12/17 16:46:29;;;;;;;52.13;29.38;;;0.70;80.60;;;;;;5026126;28;20352;-85
2022/12/17 16:48:57;;;;;;;52.88;30.42;;;0.70;81.30;;;;;;5038263;28;20040;-85
2022/12/17 16:51:25;;;;;;;56.25;31.45;;;0.70;80.70;;;;;;5027768;28;20025;-85
2022/12/17 16:53:51;;;;;;;53.42;30.10;;;0.70;80.60;;;;;;5033010;28;20051;-86
2022/12/17 16:56:19;;;;;;;60.20;33.47;;;0.70;80.60;;;;;;5030877;28;20040;-85
2022/12/17 16:58:45;;;;;;;61.22;32.72;;;0.70;80.60;;;;;;5033311;28;20086;-86
2022/12/17 17:01:11;;;;;;;66.90;35.00;;;0.60;80.50;;;;;;5031686;28;20029;-85
2022/12/17 17:03:41;;;;;;;54.42;30.35;;;0.60;80.60;;;;;;5030177;28;20061;-85
2022/12/17 17:06:07;;;;;;;55.58;29.55;;;0.60;80.70;;;;;;5031953;28;20314;-85
2022/12/17 17:08:37;;;;;;;69.38;36.00;;;0.60;80.70;;;;;;5032092;28;20418;-85
2022/12/17 17:11:20;;;;;;;57.92;30.65;;;0.50;80.60;;;;;;5035839;28;20021;-85
2022/12/17 17:13:47;;;;;;;74.45;39.30;;;0.50;80.80;;;;;;5052446;28;20021;-85
2022/12/17 17:16:14;;;;;;;50.67;27.65;;;0.40;80.80;;;;;;5044338;28;20025;-86
2022/12/17 17:18:39;;;;;;;63.53;34.20;;;0.40;81.10;;;;;;5037974;28;20029;-86
2022/12/17 17:21:26;;;;;;;57.33;31.00;;;0.40;81.10;;;;;;5038093;28;20021;-85
2022/12/17 17:23:58;;;;;;;53.25;28.10;;;0.40;81.10;;;;;;5033078;28;20391;-85
2022/12/17 17:26:25;;;;;;;56.83;29.50;;;0.30;81.00;;;;;;5035534;28;20494;-87
2022/12/17 17:28:51;;;;;;;50.78;27.67;;;0.20;81.80;;;;;;5054380;28;20013;-87
2022/12/17 17:31:18;;;;;;;56.70;29.65;;;0.20;81.40;;;;;;5039882;28;20104;-87
2022/12/17 17:33:47;;;;;;;50.90;28.33;;;0.30;81.50;;;;;;5035494;28;20021;-87
2022/12/17 17:36:17;;;;;;;53.90;28.88;;;0.30;81.50;;;;;;5045432;28;20029;-87
2022/12/17 17:38:42;;;;;;;54.13;30.48;;;0.30;81.50;;;;;;5041906;28;20055;-88
2022/12/17 17:41:11;;;;;;;53.00;28.42;;;0.40;81.40;;;;;;5039471;28;20025;-88
2022/12/17 17:43:37;;;;;;;56.03;29.80;;;0.40;81.40;;;;;;5036771;28;20022;-88
2022/12/17 17:46:12;;;;;;;54.80;28.90;;;0.40;81.30;;;;;;5039064;28;20430;-89
2022/12/17 17:48:38;;;;;;;53.97;29.05;;;0.30;81.20;;;;;;5040667;28;20036;-88
2022/12/17 17:51:16;;;;;;;44.00;24.90;;;0.30;81.20;;;;;;5038191;28;20132;-87
2022/12/17 17:53:43;;;;;;;43.38;23.35;;;0.40;81.30;;;;;;5050102;28;20013;-88
2022/12/17 17:56:20;;;;;;;54.88;28.08;;;0.40;81.10;;;;;;5055086;28;20021;-87
2022/12/17 17:58:49;;;;;;;53.80;28.85;;;0.40;81.10;;;;;;5040969;28;20036;-88
2022/12/17 18:01:17;;;;;;;57.17;29.42;;;0.30;81.20;;;;;;5048258;28;20029;-88
2022/12/17 18:03:43;;;;;;;51.40;27.70;;;0.30;81.40;;;;;;5068726;28;20016;-88
2022/12/17 18:06:12;;;;;;;50.88;27.48;;;0.30;81.60;;;;;;5071178;28;20037;-88
2022/12/17 18:08:38;;;;;;;54.70;29.08;;;0.30;81.70;;;;;;5042049;28;20021;-87
2022/12/17 18:11:06;;;;;;;47.60;25.98;;;0.30;81.80;;;;;;5035616;28;20048;-87
2022/12/17 18:16:17;;;;;;;51.83;28.40;;;0.30;82.20;;;;;;5043563;28;20072;-87
2022/12/17 18:18:42;;;;;;;57.72;29.85;;;0.30;81.80;;;;;;5030323;28;20017;-88
2022/12/17 18:21:12;;;;;;;53.88;28.77;;;0.20;81.80;;;;;;5031019;28;20032;-88
2022/12/17 18:23:38;;;;;;;57.80;31.20;;;0.30;81.90;;;;;;5028643;28;20021;-88
2022/12/17 18:26:08;;;;;;;51.88;28.17;;;0.30;81.90;;;;;;5044663;28;20116;-88
2022/12/17 18:28:34;;;;;;;52.42;29.27;;;0.20;81.80;;;;;;5035789;28;20547;-88
2022/12/17 18:31:24;;;;;;;42.33;23.17;;;0.20;81.80;;;;;;5032126;28;20037;-88
2022/12/17 18:34:01;;;;;;;54.95;29.35;;;0.30;81.80;;;;;;5023681;28;20484;-89
2022/12/17 18:36:30;;;;;;;63.67;34.28;;;0.20;81.50;;;;;;5029874;28;20033;-89
2022/12/17 18:39:02;;;;;;;53.53;28.77;;;0.10;81.90;;;;;;5047032;28;20483;-88
2022/12/17 18:44:20;;;;;;;57.38;31.70;;;-0.10;82.60;;;;;;5041438;28;20059;-89
2022/12/17 18:46:45;;;;;;;49.47;27.98;;;-0.20;82.70;;;;;;5034549;28;20029;-89
2022/12/17 18:49:13;;;;;;;61.00;33.47;;;-0.30;83.00;;;;;;5035007;28;20025;-89
2022/12/17 18:51:41;;;;;;;58.85;31.08;;;-0.30;83.40;;;;;;5034436;28;20032;-89
2022/12/17 18:54:11;;;;;;;54.78;28.75;;;-0.40;83.40;;;;;;5025329;28;20029;-89
2022/12/17 18:56:37;;;;;;;50.60;27.25;;;-0.40;83.60;;;;;;5033691;28;20104;-88
2022/12/17 18:59:06;;;;;;;52.97;29.17;;;-0.40;83.50;;;;;;5029253;28;20084;-88
2022/12/17 19:01:34;;;;;;;51.88;28.40;;;-0.50;83.60;;;;;;5034905;28;20079;-87
2022/12/17 19:04:05;;;;;;;53.58;28.23;;;-0.50;83.80;;;;;;5033386;28;20033;-84
2022/12/17 19:06:32;;;;;;;42.33;23.88;;;-0.60;84.00;;;;;;5039404;28;20103;-85
2022/12/17 19:08:58;;;;;;;54.25;30.23;;;-0.60;84.20;;;;;;5047863;28;20025;-83
2022/12/17 19:11:25;;;;;;;47.42;25.58;;;-0.50;84.20;;;;;;5031997;28;20142;-87
2022/12/17 19:13:51;;;;;;;47.58;26.88;;;-0.50;84.40;;;;;;5037925;28;20112;-87
2022/12/17 19:16:22;;;;;;;41.08;22.85;;;-0.50;84.30;;;;;;5046264;28;20093;-86
2022/12/17 19:18:53;;;;;;;45.33;24.45;;;-0.40;84.20;;;;;;5030602;28;20021;-86
2022/12/17 19:21:19;;;;;;;43.60;23.48;;;-0.50;83.80;;;;;;5031580;28;20508;-84
2022/12/17 19:23:45;;;;;;;39.60;22.60;;;-0.50;84.10;;;;;;5037083;28;20487;-85
2022/12/17 19:26:12;;;;;;;45.65;23.92;;;-0.50;84.10;;;;;;5034059;28;20082;-85
2022/12/17 19:28:47;;;;;;;58.13;31.05;;;-0.50;83.80;;;;;;5033237;28;20120;-87
2022/12/17 19:31:13;;;;;;;42.63;23.35;;;-0.50;83.50;;;;;;5033320;28;20029;-90
2022/12/17 19:33:39;;;;;;;43.90;23.52;;;-0.60;83.40;;;;;;5033412;28;20116;-90
2022/12/17 19:36:07;;;;;;;46.72;25.77;;;-0.60;83.30;;;;;;5033139;28;20107;-90
2022/12/17 19:38:34;;;;;;;45.70;23.38;;;-0.50;83.30;;;;;;5029062;28;20024;-90
2022/12/17 19:41:13;;;;;;;46.13;23.67;;;-0.60;83.30;;;;;;5045152;28;20028;-90
2022/12/17 19:43:40;;;;;;;39.33;20.60;;;-0.50;83.50;;;;;;5026248;28;20160;-90
2022/12/17 19:46:09;;;;;;;43.08;21.52;;;-0.40;83.50;;;;;;5007825;28;20496;-90
2022/12/17 19:48:36;;;;;;;45.67;24.27;;;-0.30;83.40;;;;;;5019480;28;20492;-90
2022/12/17 19:51:04;;;;;;;45.85;24.35;;;-0.40;83.00;;;;;;5030621;28;20253;-90
2022/12/17 19:53:30;;;;;;;50.20;25.77;;;-0.60;83.00;;;;;;5024798;28;20360;-89
2022/12/17 19:56:07;;;;;;;41.63;22.88;;;-0.70;83.30;;;;;;5029350;28;20052;-89
2022/12/17 19:58:32;;;;;;;43.20;22.13;;;-0.70;83.70;;;;;;5042716;28;20029;-90
2022/12/17 20:01:09;;;;;;;48.20;22.90;;;-0.80;84.10;;;;;;5035037;28;20028;-88
2022/12/17 20:03:35;;;;;;;43.53;22.02;;;-0.80;84.30;;;;;;5047525;28;20029;-89
2022/12/17 20:06:02;;;;;;;68.63;33.45;;;-0.80;84.20;;;;;;5032621;28;20031;-89
2022/12/17 20:08:27;;;;;;;45.80;23.92;;;-0.80;84.00;;;;;;5028132;28;20451;-89
2022/12/17 20:10:53;;;;;;;50.20;24.42;;;-0.80;84.00;;;;;;5046225;28;20107;-88
2022/12/17 20:13:19;;;;;;;35.92;18.38;;;-0.70;84.00;;;;;;5045624;28;20029;-89
2022/12/17 20:15:44;;;;;;;45.55;23.42;;;-0.60;84.00;;;;;;5027346;28;20044;-89
2022/12/17 20:18:11;;;;;;;93.55;28.10;;;-0.60;83.80;;;;;;5031543;28;20029;-89
2022/12/17 20:20:36;;;;;;;45.45;24.35;;;-0.70;84.30;;;;;;5032443;28;20020;-89
2022/12/17 20:23:03;;;;;;;44.45;22.92;;;-0.80;83.90;;;;;;5033289;28;20032;-89
2022/12/17 20:25:28;;;;;;;49.33;25.13;;;-0.80;84.20;;;;;;5032961;28;20036;-89
2022/12/17 20:27:54;;;;;;;47.47;24.35;;;-0.80;84.40;;;;;;5034244;28;20021;-89
2022/12/17 20:30:21;;;;;;;49.30;23.92;;;-0.90;84.40;;;;;;5044463;28;20533;-90
2022/12/17 20:32:52;;;;;;;55.17;26.48;;;-0.90;84.50;;;;;;5034075;28;20070;-89
2022/12/17 20:35:20;;;;;;;37.28;19.30;;;-1.00;84.30;;;;;;5014258;28;20072;-89
2022/12/17 20:37:45;;;;;;;36.88;16.95;;;-1.00;84.80;;;;;;5012523;28;20067;-89
2022/12/17 20:40:11;;;;;;;39.38;19.80;;;-1.00;84.80;;;;;;5030401;28;20048;-89
2022/12/17 20:42:37;;;;;;;38.70;20.02;;;-0.90;84.80;;;;;;5032862;28;20029;-89
2022/12/17 20:45:02;;;;;;;46.20;23.45;;;-0.90;84.80;;;;;;5029328;28;20025;-88
2022/12/17 20:47:28;;;;;;;34.00;18.55;;;-0.90;84.50;;;;;;5032085;28;20037;-88
2022/12/17 20:49:54;;;;;;;42.38;22.02;;;-0.80;84.40;;;;;;5028897;28;20021;-88
2022/12/17 20:52:19;;;;;;;46.45;23.85;;;-0.80;84.10;;;;;;5026114;28;20025;-88
2022/12/17 20:54:45;;;;;;;57.35;29.80;;;-0.80;83.90;;;;;;5030119;28;20025;-87
2022/12/17 20:57:10;;;;;;;65.28;32.67;;;-0.90;83.70;;;;;;5029454;28;20041;-89
2022/12/17 20:59:36;;;;;;;54.05;27.38;;;-0.90;83.90;;;;;;5030510;28;20029;-87
2022/12/17 21:02:02;;;;;;;62.65;28.15;;;-0.90;83.70;;;;;;5033093;28;20020;-88
2022/12/17 21:04:27;;;;;;;79.18;38.30;;;-1.10;83.50;;;;;;5027686;28;20063;-88
2022/12/17 21:06:53;;;;;;;67.57;31.75;;;-1.20;83.80;;;;;;5021237;28;20017;-88
2022/12/17 21:09:19;;;;;;;68.68;28.70;;;-1.40;84.10;;;;;;5031938;28;20412;-88
2022/12/17 21:11:45;;;;;;;59.47;28.45;;;-1.40;84.60;;;;;;5023673;28;20021;-88
2022/12/17 21:14:14;;;;;;;101.15;34.95;;;-1.40;84.80;;;;;;5026571;28;20435;-87
2022/12/17 21:16:41;;;;;;;46.42;25.83;;;-1.40;85.10;;;;;;5028280;28;20178;-84
2022/12/17 21:19:12;;;;;;;60.03;27.40;;;-1.50;85.00;;;;;;5031508;28;20029;-86
2022/12/17 21:21:38;;;;;;;62.47;30.30;;;-1.50;85.40;;;;;;5038315;28;20021;-88
2022/12/17 21:24:05;;;;;;;70.63;39.08;;;-1.50;85.50;;;;;;5042907;28;20052;-85
2022/12/17 21:26:36;;;;;;;73.15;32.33;;;-1.50;85.50;;;;;;5031061;28;20079;-86
2022/12/17 21:29:04;;;;;;;75.87;42.30;;;-1.40;86.10;;;;;;5035789;28;20040;-86
2022/12/17 21:31:37;;;;;;;57.78;32.85;;;-1.40;85.40;;;;;;5030217;28;20822;-87
2022/12/17 21:34:04;;;;;;;109.07;33.25;;;-1.40;85.50;;;;;;5029870;28;20092;-86
2022/12/17 21:36:31;;;;;;;54.38;27.10;;;-1.40;85.60;;;;;;5023920;28;20041;-85
2022/12/17 21:38:58;;;;;;;54.90;29.70;;;-1.30;85.60;;;;;;5039962;28;20017;-84
2022/12/17 21:41:33;;;;;;;63.60;32.50;;;-1.20;85.50;;;;;;5051595;28;20049;-85
2022/12/17 21:44:01;;;;;;;63.97;30.83;;;-1.20;85.30;;;;;;5055029;28;20044;-84
2022/12/17 21:46:27;;;;;;;51.20;26.20;;;-1.20;85.20;;;;;;5022529;28;20030;-85
2022/12/17 21:48:58;;;;;;;56.40;27.98;;;-1.20;85.20;;;;;;5043304;28;20028;-83
2022/12/17 21:51:24;;;;;;;62.42;31.83;;;-1.10;85.20;;;;;;5045973;28;20025;-83
2022/12/17 21:53:59;;;;;;;52.33;26.30;;;-1.20;85.20;;;;;;5041863;28;20128;-83
2022/12/17 21:56:25;;;;;;;55.22;28.90;;;-1.00;85.30;;;;;;5029139;28;20025;-85
2022/12/17 21:58:58;;;;;;;50.88;25.38;;;-1.10;84.90;;;;;;5031537;28;20503;-85
2022/12/17 22:01:26;;;;;;;53.53;26.20;;;-1.00;85.10;;;;;;5031101;28;20530;-87
2022/12/17 22:03:54;;;;;;;46.83;24.17;;;-0.90;85.00;;;;;;5026399;28;20373;-84
2022/12/17 22:06:23;;;;;;;56.58;28.52;;;-1.00;84.80;;;;;;5032212;28;20087;-84
2022/12/17 22:08:48;;;;;;;54.40;27.20;;;-0.90;84.60;;;;;;5031495;28;20025;-83
2022/12/17 22:11:16;;;;;;;61.38;31.27;;;-0.90;84.60;;;;;;5028954;28;20124;-84
2022/12/17 22:14:02;;;;;;;59.20;28.65;;;-1.00;84.40;;;;;;5031224;28;20018;-87
2022/12/17 22:16:37;;;;;;;57.67;29.73;;;-1.10;84.30;;;;;;5027572;28;20446;-85
2022/12/17 22:19:03;;;;;;;69.22;36.97;;;-1.10;84.50;;;;;;5036817;28;20045;-84
2022/12/17 22:21:33;;;;;;;55.25;28.80;;;-1.10;84.40;;;;;;5033371;28;20013;-84
2022/12/17 22:23:58;;;;;;;55.17;30.60;;;-1.20;84.30;;;;;;5033892;28;20032;-86
2022/12/17 22:26:24;;;;;;;53.85;27.65;;;-1.20;84.50;;;;;;5033529;28;20025;-85
2022/12/17 22:28:49;;;;;;;56.67;28.65;;;-1.10;84.60;;;;;;5029757;28;20021;-86
2022/12/17 22:34:03;;;;;;;49.28;26.58;;;-1.20;84.40;;;;;;5044365;28;20036;-87
2022/12/17 22:36:30;;;;;;;59.78;32.38;;;-1.30;84.40;;;;;;5046323;28;20437;-89
2022/12/17 22:38:59;;;;;;;54.33;27.08;;;-1.30;84.30;;;;;;5026061;28;20025;-85
2022/12/17 22:44:08;;;;;;;48.10;25.42;;;-1.50;84.60;;;;;;5047800;28;20102;-85
2022/12/17 22:46:34;;;;;;;58.88;27.15;;;-1.50;84.70;;;;;;5032999;28;20079;-83
2022/12/17 22:48:59;;;;;;;54.05;27.92;;;-1.50;84.50;;;;;;5024927;28;20088;-86
2022/12/17 22:51:25;;;;;;;47.50;24.02;;;-1.60;84.50;;;;;;5043407;28;20475;-85
2022/12/17 22:53:51;;;;;;;53.78;26.60;;;-1.60;84.70;;;;;;5025207;28;20025;-85
2022/12/17 22:56:18;;;;;;;51.58;26.13;;;-1.50;84.70;;;;;;5032880;28;20040;-85
2022/12/17 22:58:44;;;;;;;57.72;29.08;;;-1.50;84.60;;;;;;5033298;28;20028;-85
2022/12/17 23:01:10;;;;;;;49.38;23.05;;;-1.50;84.60;;;;;;5034386;28;20025;-86
2022/12/17 23:03:35;;;;;;;50.20;24.20;;;-1.50;84.60;;;;;;5030137;28;20480;-86
2022/12/17 23:06:09;;;;;;;48.65;25.13;;;-1.50;84.40;;;;;;5036599;28;20053;-86
2022/12/17 23:08:35;;;;;;;58.35;27.15;;;-1.40;84.50;;;;;;5032444;28;20124;-86
2022/12/17 23:11:28;;;;;;;61.15;29.50;;;-1.40;84.30;;;;;;5036622;28;20439;-85
2022/12/17 23:13:54;;;;;;;;;;;-1.40;84.30;;;;;;5033633;28;20040;-86
2022/12/17 23:16:20;;;;;;;62.55;28.33;;;-1.40;84.10;;;;;;5036351;28;20027;-85
2022/12/17 23:18:47;;;;;;;63.60;28.90;;;-1.50;84.10;;;;;;5027974;28;20033;-83
2022/12/17 23:21:24;;;;;;;78.25;34.28;;;-1.50;84.20;;;;;;5024425;28;20039;-86
2022/12/17 23:23:53;;;;;;;65.70;32.20;;;-1.50;84.20;;;;;;5031988;28;20025;-86
2022/12/17 23:26:25;;;;;;;66.45;33.03;;;-1.60;84.20;;;;;;5050276;28;20032;-89
2022/12/17 23:28:57;;;;;;;57.42;27.45;;;-1.60;84.30;;;;;;5032252;28;20491;-90
2022/12/17 23:31:23;;;;;;;62.50;30.70;;;-1.60;84.40;;;;;;5035405;28;20487;-89
2022/12/17 23:33:49;;;;;;;54.53;27.70;;;-1.60;84.40;;;;;;5032998;28;20059;-88
2022/12/17 23:36:18;;;;;;;56.47;29.33;;;-1.60;84.50;;;;;;5026406;28;20460;-87
2022/12/17 23:38:44;;;;;;;49.63;25.92;;;-1.70;84.40;;;;;;5028066;28;20033;-88
2022/12/17 23:41:13;;;;;;;49.70;26.27;;;-1.70;84.50;;;;;;5031052;28;20028;-88
2022/12/17 23:43:38;;;;;;;48.47;25.00;;;-1.70;84.40;;;;;;5032797;28;20090;-88
2022/12/17 23:46:05;;;;;;;47.65;24.88;;;-1.70;84.30;;;;;;5030766;28;20448;-88
2022/12/17 23:48:33;;;;;;;55.97;28.02;;;-1.80;84.30;;;;;;5032036;28;20029;-87
2022/12/17 23:51:00;;;;;;;52.22;26.00;;;-1.70;84.20;;;;;;5045375;28;20434;-87
2022/12/17 23:53:27;;;;;;;49.17;25.35;;;-1.80;84.20;;;;;;5034882;28;20107;-87
2022/12/17 23:55:53;;;;;;;44.15;23.40;;;-1.70;84.40;;;;;;5028691;28;20029;-86
2022/12/17 23:58:19;;;;;;;43.25;23.38;;;-1.70;84.20;;;;;;5016425;28;20029;-85
